Sylacauga, Alabama
Current Conditions -  °F | °C
As of 8:55 AM on Wednesday 22 Oct 2014 (Local Time) from KSCD Reporting Station
Clear Clear  
Wind Chill: 55°   Ceiling: Unl
Heat Index: 55°   Visibility: 10mi
Dew Point: 48°   Wind: 7mph
Humidity: 78%   Direction: 70°ENE
Pressure: 30.16"   Gusts: NA
Location:  33.17°N, 86.25°W
Report Text: KSCD 221355Z AUTO 07006KT 10SM CLR 13/09 A3016 RMK AO2 T01270089
Loading
Personal Weather Stations






























Interactive Weather Map
Tropical Storm Tracking
New forecast layout! Learn more

10-Day Weather Forecast

Advertisements
Track Severe Weather on mobile